createdAt,value
2017-09-28T00:00:50.467Z,16.40
2017-09-28T00:03:18.390Z,16.40
2017-09-28T00:05:46.768Z,16.40
2017-09-28T00:08:14.352Z,16.40
2017-09-28T00:10:42.768Z,16.30
2017-09-28T00:13:10.327Z,16.30
2017-09-28T00:15:37.901Z,16.30
2017-09-28T00:18:05.514Z,16.20
2017-09-28T00:20:33.062Z,16.20
2017-09-28T00:23:01.682Z,16.10
2017-09-28T00:25:29.575Z,16.10
2017-09-28T00:27:57.163Z,16.10
2017-09-28T00:30:24.768Z,16.00
2017-09-28T00:32:52.806Z,16.00
2017-09-28T00:35:21.184Z,16.00
2017-09-28T00:37:48.746Z,16.00
2017-09-28T00:40:17.610Z,16.00
2017-09-28T00:42:45.164Z,16.00
2017-09-28T00:45:12.733Z,16.00
2017-09-28T00:47:40.770Z,16.00
2017-09-28T00:50:08.376Z,16.00
2017-09-28T00:52:35.979Z,16.00
2017-09-28T00:55:03.618Z,16.00
2017-09-28T00:57:31.207Z,16.00
2017-09-28T00:59:59.613Z,16.00
2017-09-28T01:02:27.754Z,16.00
2017-09-28T01:04:55.360Z,15.90
2017-09-28T01:07:22.960Z,15.90
2017-09-28T01:09:50.975Z,15.90
2017-09-28T01:12:18.653Z,15.90
2017-09-28T01:14:46.575Z,15.90
2017-09-28T01:17:15.676Z,15.90
2017-09-28T01:19:43.231Z,15.90
2017-09-28T01:22:10.792Z,15.90
2017-09-28T01:24:38.961Z,16.00
2017-09-28T01:27:06.628Z,15.90
2017-09-28T01:29:34.199Z,16.00
2017-09-28T01:32:02.442Z,16.00
2017-09-28T01:34:29.986Z,16.00
2017-09-28T01:36:57.580Z,16.00
2017-09-28T01:39:25.998Z,15.90
2017-09-28T01:41:53.811Z,15.90
2017-09-28T01:44:21.410Z,15.90
2017-09-28T01:46:50.048Z,15.90
2017-09-28T01:49:17.701Z,15.90
2017-09-28T01:51:46.019Z,16.00
2017-09-28T01:54:13.636Z,15.90
2017-09-28T01:56:41.980Z,15.90
2017-09-28T01:59:09.917Z,15.90
2017-09-28T02:01:37.559Z,15.90
2017-09-28T02:04:05.120Z,15.90
2017-09-28T02:06:32.718Z,15.90
2017-09-28T02:09:00.376Z,15.80
2017-09-28T02:11:28.499Z,15.80
2017-09-28T02:13:56.832Z,15.80
2017-09-28T02:16:25.804Z,15.80
2017-09-28T02:18:53.378Z,15.80
2017-09-28T02:21:20.942Z,15.80
2017-09-28T02:23:48.793Z,15.80
2017-09-28T02:26:16.354Z,15.80
2017-09-28T02:28:43.926Z,15.80
2017-09-28T02:31:11.810Z,15.70
2017-09-28T02:33:39.371Z,15.70
2017-09-28T02:36:06.943Z,15.70
2017-09-28T02:38:35.340Z,15.70
2017-09-28T02:41:02.916Z,15.70
2017-09-28T02:43:30.466Z,15.70
2017-09-28T02:45:59.215Z,15.70
2017-09-28T02:48:26.823Z,15.70
2017-09-28T02:50:54.426Z,15.70
2017-09-28T02:53:22.071Z,15.70
2017-09-28T02:55:49.664Z,15.70
2017-09-28T02:58:17.254Z,15.70
2017-09-28T03:00:44.905Z,15.70
2017-09-28T03:03:12.511Z,15.70
2017-09-28T03:05:40.070Z,15.60
2017-09-28T03:08:08.021Z,15.60
2017-09-28T03:10:35.615Z,15.70
2017-09-28T03:13:03.329Z,15.70
2017-09-28T03:15:31.407Z,15.70
2017-09-28T03:17:59.009Z,15.70
2017-09-28T03:20:26.594Z,15.70
2017-09-28T03:22:54.232Z,15.60
2017-09-28T03:25:21.796Z,15.60
2017-09-28T03:27:50.017Z,15.60
2017-09-28T03:30:17.632Z,15.60
2017-09-28T03:32:45.195Z,15.60
2017-09-28T03:35:12.789Z,15.60
2017-09-28T03:37:40.446Z,15.50
2017-09-28T03:40:08.007Z,15.50
2017-09-28T03:42:36.316Z,15.50
2017-09-28T03:45:04.538Z,15.50
2017-09-28T03:47:32.751Z,15.50
2017-09-28T03:50:00.495Z,15.50
2017-09-28T03:52:28.886Z,15.60
2017-09-28T03:54:56.528Z,15.50
2017-09-28T03:57:24.128Z,15.60
2017-09-28T03:59:52.598Z,15.60
2017-09-28T04:02:20.196Z,15.60
2017-09-28T04:04:47.794Z,15.50
2017-09-28T04:07:15.423Z,15.60
2017-09-28T04:09:43.004Z,15.50
2017-09-28T04:12:11.351Z,15.50
2017-09-28T04:14:39.026Z,15.50
2017-09-28T04:17:06.601Z,15.50
2017-09-28T04:19:34.172Z,15.50
2017-09-28T04:22:02.127Z,15.50
2017-09-28T04:24:29.691Z,15.50
2017-09-28T04:26:57.382Z,15.40
2017-09-28T04:29:25.005Z,15.40
2017-09-28T04:31:52.567Z,15.40
2017-09-28T04:34:20.122Z,15.40
2017-09-28T04:36:49.118Z,15.40
2017-09-28T04:39:16.722Z,15.30
2017-09-28T04:41:44.324Z,15.30
2017-09-28T04:44:11.958Z,15.30
2017-09-28T04:46:39.545Z,15.20
2017-09-28T04:49:07.802Z,15.20
2017-09-28T04:51:35.501Z,15.20
2017-09-28T04:54:03.062Z,15.20
2017-09-28T04:56:30.659Z,15.10
2017-09-28T04:58:58.314Z,15.10
2017-09-28T05:01:26.646Z,15.00
2017-09-28T05:03:54.216Z,15.00
2017-09-28T05:06:21.832Z,15.00
2017-09-28T05:08:49.427Z,15.00
2017-09-28T05:11:17.024Z,15.00
2017-09-28T05:13:45.406Z,15.00
2017-09-28T05:16:12.978Z,15.00
2017-09-28T05:18:40.568Z,15.00
2017-09-28T05:21:08.252Z,15.00
2017-09-28T05:23:35.968Z,15.00
2017-09-28T05:26:03.522Z,15.00
2017-09-28T05:28:31.453Z,15.00
2017-09-28T05:30:59.013Z,15.00
2017-09-28T05:33:26.583Z,14.90
2017-09-28T05:35:54.972Z,14.90
2017-09-28T05:38:23.525Z,14.90
2017-09-28T05:40:51.096Z,15.00
2017-09-28T05:43:18.775Z,14.90
2017-09-28T05:45:46.347Z,14.90
2017-09-28T05:48:13.907Z,14.90
2017-09-28T05:50:42.071Z,14.90
2017-09-28T05:53:10.392Z,15.00
2017-09-28T05:55:37.988Z,15.00
2017-09-28T05:58:05.611Z,15.00
2017-09-28T06:00:33.194Z,15.00
2017-09-28T06:03:00.754Z,15.00
2017-09-28T06:05:28.418Z,15.20
2017-09-28T06:07:56.039Z,15.20
2017-09-28T06:10:23.702Z,15.30
2017-09-28T06:12:51.320Z,15.40
2017-09-28T06:15:18.918Z,15.50
2017-09-28T06:17:46.483Z,15.60
2017-09-28T06:20:14.122Z,15.60
2017-09-28T06:22:41.679Z,15.70
2017-09-28T06:25:10.081Z,15.80
2017-09-28T06:27:38.414Z,15.80
2017-09-28T06:30:06.755Z,15.90
2017-09-28T06:32:34.383Z,15.90
2017-09-28T06:35:01.932Z,15.90
2017-09-28T06:37:29.594Z,16.00
2017-09-28T06:39:57.161Z,16.00
2017-09-28T06:42:24.811Z,16.10
2017-09-28T06:44:53.210Z,16.20
2017-09-28T06:47:20.794Z,16.20
2017-09-28T06:49:48.443Z,16.30
2017-09-28T06:52:16.004Z,16.40
2017-09-28T06:54:43.567Z,16.40
2017-09-28T06:57:11.172Z,16.50
2017-09-28T06:59:38.725Z,16.60
2017-09-28T07:02:06.341Z,16.60
2017-09-28T07:04:33.964Z,16.70
2017-09-28T07:07:02.500Z,16.90
2017-09-28T07:09:30.120Z,16.90
2017-09-28T07:11:59.709Z,17.00
2017-09-28T07:14:27.794Z,17.00
2017-09-28T07:16:55.394Z,17.10
2017-09-28T07:19:23.150Z,17.20
2017-09-28T07:21:50.779Z,17.20
2017-09-28T07:24:18.420Z,17.30
2017-09-28T07:26:45.977Z,17.40
2017-09-28T07:29:14.029Z,17.40
2017-09-28T07:31:41.629Z,17.50
2017-09-28T07:34:09.190Z,17.60
2017-09-28T07:36:37.564Z,17.70
2017-09-28T07:39:05.344Z,17.70
2017-09-28T07:41:33.945Z,17.80
2017-09-28T07:44:01.543Z,17.90
2017-09-28T07:46:29.119Z,18.00
2017-09-28T07:48:57.780Z,18.10
2017-09-28T07:51:25.970Z,18.10
2017-09-28T07:53:53.547Z,18.30
2017-09-28T07:56:21.927Z,18.40
2017-09-28T07:58:49.487Z,18.40
2017-09-28T08:01:17.820Z,18.60
2017-09-28T08:03:45.900Z,18.60
2017-09-28T08:06:13.468Z,18.70
2017-09-28T08:08:41.104Z,18.80
2017-09-28T08:11:08.754Z,18.90
2017-09-28T08:13:36.348Z,19.00
2017-09-28T08:16:03.928Z,19.10
2017-09-28T08:18:31.799Z,19.20
2017-09-28T08:21:00.132Z,19.30
2017-09-28T08:23:27.737Z,19.30
2017-09-28T08:25:56.127Z,19.50
2017-09-28T08:28:23.682Z,19.50
2017-09-28T08:30:52.031Z,19.70
2017-09-28T08:33:20.488Z,19.70
2017-09-28T08:35:48.083Z,19.80
2017-09-28T08:38:16.411Z,20.00
2017-09-28T08:40:44.005Z,20.00
2017-09-28T08:43:11.615Z,20.10
2017-09-28T08:45:39.226Z,20.30
2017-09-28T08:48:06.813Z,20.40
2017-09-28T08:50:35.178Z,20.70
2017-09-28T08:53:04.291Z,20.80
2017-09-28T08:55:31.872Z,20.80
2017-09-28T08:57:59.460Z,21.00
2017-09-28T09:00:27.057Z,20.90
2017-09-28T09:02:54.676Z,20.70
2017-09-28T09:05:22.250Z,20.50
2017-09-28T09:07:49.862Z,20.40
2017-09-28T09:10:17.468Z,20.30
2017-09-28T09:12:45.040Z,20.20
2017-09-28T09:15:12.682Z,20.10
2017-09-28T09:17:40.255Z,20.10
2017-09-28T09:20:07.866Z,20.10
2017-09-28T09:22:35.619Z,20.10
2017-09-28T09:25:03.395Z,20.20
2017-09-28T09:27:31.755Z,20.20
2017-09-28T09:29:59.356Z,20.20
2017-09-28T09:32:26.916Z,20.20
2017-09-28T09:34:54.483Z,20.10
2017-09-28T09:37:22.096Z,20.10
2017-09-28T09:39:50.442Z,20.30
2017-09-28T09:42:17.994Z,20.30
2017-09-28T09:44:45.897Z,20.30
2017-09-28T09:47:14.592Z,20.50
2017-09-28T09:49:42.937Z,20.60
2017-09-28T09:52:10.566Z,20.60
2017-09-28T09:54:38.142Z,20.60
2017-09-28T09:57:05.710Z,20.60
2017-09-28T09:59:33.395Z,20.80
2017-09-28T10:02:00.959Z,20.90
2017-09-28T10:04:29.296Z,20.90
2017-09-28T10:07:08.143Z,20.90
2017-09-28T10:09:55.440Z,20.90
2017-09-28T10:12:30.908Z,20.90
2017-09-28T10:15:01.445Z,20.90
2017-09-28T10:17:29.855Z,21.10
2017-09-28T10:19:57.460Z,21.00
2017-09-28T10:22:25.020Z,21.20
2017-09-28T10:24:52.639Z,21.20
2017-09-28T10:27:20.202Z,21.20
2017-09-28T10:29:47.819Z,21.20
2017-09-28T10:32:15.399Z,21.20
2017-09-28T10:34:42.987Z,21.30
2017-09-28T10:37:10.593Z,21.30
2017-09-28T10:39:38.243Z,21.20
2017-09-28T10:42:05.868Z,21.10
2017-09-28T10:44:34.231Z,21.10
2017-09-28T10:47:02.611Z,21.10
2017-09-28T10:49:31.206Z,21.10
2017-09-28T10:51:58.795Z,21.20
2017-09-28T10:54:26.418Z,21.20
2017-09-28T10:56:53.957Z,21.30
2017-09-28T10:59:22.439Z,21.20
2017-09-28T11:01:51.763Z,21.20
2017-09-28T11:04:20.088Z,21.30
2017-09-28T11:06:48.368Z,21.30
2017-09-28T11:09:15.953Z,21.30
2017-09-28T11:11:43.585Z,21.40
2017-09-28T11:14:11.262Z,21.40
2017-09-28T11:16:38.794Z,21.40
2017-09-28T11:19:07.142Z,21.40
2017-09-28T11:21:34.710Z,21.40
2017-09-28T11:24:02.285Z,21.40
2017-09-28T11:26:29.874Z,21.40
2017-09-28T11:28:57.450Z,21.30
2017-09-28T11:31:26.027Z,21.30
2017-09-28T11:33:54.169Z,21.30
2017-09-28T11:36:21.808Z,21.30
2017-09-28T11:38:49.688Z,21.30
2017-09-28T11:41:17.271Z,21.30
2017-09-28T11:43:45.873Z,21.30
2017-09-28T11:46:13.460Z,21.30
2017-09-28T11:48:41.060Z,21.30
2017-09-28T11:51:09.046Z,21.30
2017-09-28T11:53:36.622Z,21.30
2017-09-28T11:56:04.220Z,21.30
2017-09-28T11:58:32.887Z,21.30
2017-09-28T12:01:01.272Z,21.30
2017-09-28T12:03:28.887Z,21.30
2017-09-28T12:05:58.066Z,21.30
2017-09-28T12:08:25.673Z,21.30
2017-09-28T12:10:53.294Z,21.30
2017-09-28T12:13:20.881Z,21.40
2017-09-28T12:15:48.444Z,21.40
2017-09-28T12:18:16.135Z,21.40
2017-09-28T12:20:44.466Z,21.30
2017-09-28T12:23:12.071Z,21.30
2017-09-28T12:25:39.666Z,21.30
2017-09-28T12:28:07.255Z,21.30
2017-09-28T12:30:34.898Z,21.30
2017-09-28T12:33:02.459Z,21.30
2017-09-28T12:35:30.062Z,21.40
2017-09-28T12:37:58.436Z,21.40
2017-09-28T12:40:26.009Z,21.40
2017-09-28T12:42:54.546Z,21.40
2017-09-28T12:45:22.108Z,21.40
2017-09-28T12:47:49.731Z,21.40
2017-09-28T12:50:17.293Z,21.50
2017-09-28T12:52:45.138Z,21.50
2017-09-28T12:55:14.535Z,21.50
2017-09-28T12:57:42.145Z,21.50
2017-09-28T13:00:09.768Z,21.50
2017-09-28T13:02:37.432Z,21.50
2017-09-28T13:05:05.778Z,21.50
2017-09-28T13:07:33.411Z,21.50
2017-09-28T13:10:00.955Z,21.50
2017-09-28T13:12:29.052Z,21.50
2017-09-28T13:14:56.613Z,21.50
2017-09-28T13:17:24.283Z,21.60
2017-09-28T13:19:51.880Z,21.50
2017-09-28T13:22:20.252Z,21.50
2017-09-28T13:24:47.889Z,21.50
2017-09-28T13:27:15.448Z,21.50
2017-09-28T13:29:43.019Z,21.50
2017-09-28T13:32:12.141Z,21.50
2017-09-28T13:34:39.755Z,21.50
2017-09-28T13:37:07.747Z,21.50
2017-09-28T13:39:36.084Z,21.40
2017-09-28T13:42:03.721Z,21.40
2017-09-28T13:44:31.336Z,21.40
2017-09-28T13:46:59.713Z,21.40
2017-09-28T13:49:27.348Z,21.40
2017-09-28T13:51:54.921Z,21.40
2017-09-28T13:54:22.491Z,21.30
2017-09-28T13:56:50.114Z,21.30
2017-09-28T13:59:17.776Z,21.30
2017-09-28T14:01:46.704Z,21.20
2017-09-28T14:04:14.215Z,21.20
2017-09-28T14:06:41.789Z,21.20
2017-09-28T14:09:09.411Z,21.20
2017-09-28T14:11:37.361Z,21.10
2017-09-28T14:14:04.996Z,21.10
2017-09-28T14:16:32.642Z,21.00
2017-09-28T14:19:00.453Z,21.00
2017-09-28T14:21:28.182Z,21.00
2017-09-28T14:23:55.768Z,20.90
2017-09-28T14:26:23.749Z,20.90
2017-09-28T14:28:51.554Z,20.90
2017-09-28T14:31:19.134Z,20.90
2017-09-28T14:33:46.792Z,20.80
2017-09-28T14:36:14.401Z,20.80
2017-09-28T14:38:42.075Z,20.80
2017-09-28T14:41:10.468Z,20.80
2017-09-28T14:43:38.142Z,20.80
2017-09-28T14:46:05.778Z,20.80
2017-09-28T14:48:33.676Z,20.70
2017-09-28T14:51:01.279Z,20.70
2017-09-28T14:53:28.922Z,20.70
2017-09-28T14:55:56.502Z,20.70
2017-09-28T14:58:24.852Z,20.70
2017-09-28T15:00:52.411Z,20.70
2017-09-28T15:03:20.060Z,20.70
2017-09-28T15:05:48.319Z,20.60
2017-09-28T15:08:16.084Z,20.60
2017-09-28T15:10:43.726Z,20.50
2017-09-28T15:13:12.268Z,20.50
2017-09-28T15:15:40.284Z,20.50
2017-09-28T15:18:07.917Z,20.50
2017-09-28T15:20:36.253Z,20.40
2017-09-28T15:23:03.886Z,20.40
2017-09-28T15:25:31.508Z,20.40
2017-09-28T15:27:59.153Z,20.30
2017-09-28T15:30:26.763Z,20.20
2017-09-28T15:32:55.097Z,20.10
2017-09-28T15:35:22.692Z,20.10
2017-09-28T15:37:50.296Z,20.10
2017-09-28T15:40:18.341Z,20.00
2017-09-28T15:42:45.904Z,19.90
2017-09-28T15:45:13.952Z,19.90
2017-09-28T15:47:41.564Z,19.80
2017-09-28T15:50:09.122Z,19.70
2017-09-28T15:52:36.731Z,19.70
2017-09-28T15:55:04.356Z,19.70
2017-09-28T15:57:31.988Z,19.60
2017-09-28T15:59:59.596Z,19.50
2017-09-28T16:02:28.083Z,19.50
2017-09-28T16:04:56.470Z,19.50
2017-09-28T16:07:24.015Z,19.40
2017-09-28T16:09:52.368Z,19.40
2017-09-28T16:12:19.959Z,19.40
2017-09-28T16:14:48.314Z,19.40
2017-09-28T16:17:15.918Z,19.40
2017-09-28T16:19:44.296Z,19.30
2017-09-28T16:22:11.850Z,19.30
2017-09-28T16:24:40.234Z,19.30
2017-09-28T16:27:07.844Z,19.30
2017-09-28T16:29:35.509Z,19.30
2017-09-28T16:32:03.067Z,19.30
2017-09-28T16:34:30.648Z,19.30
2017-09-28T16:36:58.342Z,19.30
2017-09-28T16:39:25.955Z,19.30
2017-09-28T16:41:53.604Z,19.30
2017-09-28T16:44:21.179Z,19.20
2017-09-28T16:46:48.790Z,19.20
2017-09-28T16:49:16.444Z,19.20
2017-09-28T16:51:44.037Z,19.10
2017-09-28T16:54:11.798Z,19.10
2017-09-28T16:56:39.419Z,19.10
2017-09-28T16:59:07.000Z,19.00
2017-09-28T17:01:34.685Z,19.00
2017-09-28T17:04:02.274Z,18.90
2017-09-28T17:06:30.380Z,18.90
2017-09-28T17:08:58.700Z,18.80
2017-09-28T17:11:26.282Z,18.80
2017-09-28T17:13:53.869Z,18.80
2017-09-28T17:16:21.494Z,18.80
2017-09-28T17:18:49.205Z,18.70
2017-09-28T17:21:16.766Z,18.70
2017-09-28T17:23:45.093Z,18.60
2017-09-28T17:26:12.754Z,18.60
2017-09-28T17:28:40.339Z,18.60
2017-09-28T17:31:08.876Z,18.60
2017-09-28T17:33:37.120Z,18.60
2017-09-28T17:36:05.472Z,18.60
2017-09-28T17:38:33.106Z,18.50
2017-09-28T17:41:00.732Z,18.50
2017-09-28T17:43:28.409Z,18.50
2017-09-28T17:45:56.002Z,18.50
2017-09-28T17:48:24.285Z,18.50
2017-09-28T17:50:51.895Z,18.50
2017-09-28T17:53:19.735Z,18.40
2017-09-28T17:55:47.407Z,18.40
2017-09-28T17:58:15.180Z,18.40
2017-09-28T18:00:43.618Z,18.30
2017-09-28T18:03:11.565Z,18.30
2017-09-28T18:05:39.139Z,18.30
2017-09-28T18:08:06.758Z,18.20
2017-09-28T18:10:34.311Z,18.20
2017-09-28T18:13:01.899Z,18.20
2017-09-28T18:15:29.540Z,18.20
2017-09-28T18:17:57.292Z,18.20
2017-09-28T18:20:25.956Z,18.20
2017-09-28T18:22:54.432Z,18.20
2017-09-28T18:25:22.846Z,18.10
2017-09-28T18:27:50.489Z,18.10
2017-09-28T18:30:18.141Z,18.10
2017-09-28T18:32:49.212Z,18.10
2017-09-28T18:35:16.853Z,18.00
2017-09-28T18:37:46.716Z,18.00
2017-09-28T18:40:15.159Z,18.00
2017-09-28T18:42:42.889Z,17.90
2017-09-28T18:45:11.278Z,17.90
2017-09-28T18:47:38.833Z,17.90
2017-09-28T18:50:07.218Z,17.90
2017-09-28T18:52:34.997Z,17.90
2017-09-28T18:55:03.029Z,17.90
2017-09-28T18:57:30.598Z,17.90
2017-09-28T18:59:58.172Z,17.90
2017-09-28T19:02:26.557Z,17.80
2017-09-28T19:04:54.375Z,17.80
2017-09-28T19:07:22.348Z,17.70
2017-09-28T19:09:49.953Z,17.70
2017-09-28T19:12:17.567Z,17.70
2017-09-28T19:14:45.171Z,17.60
2017-09-28T19:17:13.576Z,17.50
2017-09-28T19:19:41.303Z,17.50
2017-09-28T19:22:09.639Z,17.50
2017-09-28T19:24:37.364Z,17.50
2017-09-28T19:27:04.964Z,17.50
2017-09-28T19:29:33.346Z,17.50
2017-09-28T19:32:01.009Z,17.50
2017-09-28T19:34:29.593Z,17.60
2017-09-28T19:36:57.156Z,17.50
2017-09-28T19:39:25.548Z,17.50
2017-09-28T19:41:53.112Z,17.50
2017-09-28T19:44:20.747Z,17.40
2017-09-28T19:46:48.314Z,17.40
2017-09-28T19:49:16.111Z,17.40
2017-09-28T19:51:44.526Z,17.30
2017-09-28T19:54:12.151Z,17.30
2017-09-28T19:56:40.103Z,17.30
2017-09-28T19:59:08.423Z,17.20
2017-09-28T20:01:36.006Z,17.10
2017-09-28T20:04:03.691Z,17.20
2017-09-28T20:06:31.266Z,17.20
2017-09-28T20:08:58.941Z,17.10
2017-09-28T20:11:27.616Z,17.10
2017-09-28T20:13:55.193Z,17.10
2017-09-28T20:16:23.573Z,17.10
2017-09-28T20:18:51.211Z,17.10
2017-09-28T20:21:19.380Z,17.10
2017-09-28T20:23:46.957Z,17.10
2017-09-28T20:26:14.543Z,17.10
2017-09-28T20:28:42.926Z,17.00
2017-09-28T20:31:10.519Z,17.00
2017-09-28T20:33:38.151Z,17.00
2017-09-28T20:36:05.936Z,17.00
2017-09-28T20:38:33.537Z,17.00
2017-09-28T20:41:01.127Z,16.90
2017-09-28T20:43:29.443Z,16.90
2017-09-28T20:45:57.075Z,16.90
2017-09-28T20:48:24.620Z,16.90
2017-09-28T20:50:52.232Z,16.90
2017-09-28T20:53:19.852Z,16.90
2017-09-28T20:55:48.183Z,16.90
2017-09-28T20:58:15.804Z,16.90
2017-09-28T21:00:43.901Z,16.90
2017-09-28T21:03:11.475Z,16.90
2017-09-28T21:05:39.067Z,16.90
2017-09-28T21:08:06.636Z,16.90
2017-09-28T21:10:35.289Z,16.90
2017-09-28T21:13:02.860Z,16.90
2017-09-28T21:15:30.444Z,16.90
2017-09-28T21:17:58.060Z,16.90
2017-09-28T21:20:25.614Z,16.90
2017-09-28T21:22:53.579Z,16.80
2017-09-28T21:25:21.200Z,16.80
2017-09-28T21:27:49.368Z,16.70
2017-09-28T21:30:17.735Z,16.60
2017-09-28T21:32:45.291Z,16.60
2017-09-28T21:35:13.676Z,16.50
2017-09-28T21:37:41.283Z,16.50
2017-09-28T21:40:08.895Z,16.40
2017-09-28T21:42:37.312Z,16.30
2017-09-28T21:45:04.863Z,16.30
2017-09-28T21:47:32.868Z,16.20
2017-09-28T21:50:00.442Z,16.20
2017-09-28T21:52:28.767Z,16.20
2017-09-28T21:54:56.359Z,16.20
2017-09-28T21:57:23.925Z,16.20
2017-09-28T21:59:51.999Z,16.20
2017-09-28T22:02:19.584Z,16.20
2017-09-28T22:04:47.186Z,16.20
2017-09-28T22:07:14.778Z,16.10
2017-09-28T22:09:42.345Z,16.10
2017-09-28T22:12:10.306Z,16.10
2017-09-28T22:14:37.916Z,16.10
2017-09-28T22:17:05.521Z,16.10
2017-09-28T22:19:33.153Z,16.10
2017-09-28T22:22:00.716Z,16.10
2017-09-28T22:24:28.334Z,16.00
2017-09-28T22:26:56.042Z,16.00
2017-09-28T22:29:23.615Z,16.00
2017-09-28T22:31:51.266Z,16.00
2017-09-28T22:34:18.852Z,15.90
2017-09-28T22:36:46.470Z,15.90
2017-09-28T22:39:14.025Z,15.80
2017-09-28T22:41:41.610Z,15.80
2017-09-28T22:44:09.226Z,15.80
2017-09-28T22:46:36.866Z,15.80
2017-09-28T22:49:06.266Z,15.80
2017-09-28T22:51:33.847Z,15.80
2017-09-28T22:54:02.058Z,15.80
2017-09-28T22:56:29.909Z,15.80
2017-09-28T22:58:57.491Z,15.80
2017-09-28T23:01:25.331Z,15.80
2017-09-28T23:03:52.890Z,15.80
2017-09-28T23:06:20.463Z,15.80
2017-09-28T23:08:48.113Z,15.90
2017-09-28T23:11:16.447Z,15.90
2017-09-28T23:13:44.111Z,15.90
2017-09-28T23:16:11.683Z,15.90
2017-09-28T23:18:39.229Z,15.90
2017-09-28T23:21:06.807Z,15.90
2017-09-28T23:23:34.359Z,15.80
2017-09-28T23:26:02.355Z,15.80
2017-09-28T23:28:29.974Z,15.80
2017-09-28T23:30:57.531Z,15.70
2017-09-28T23:33:25.159Z,15.70
2017-09-28T23:35:53.503Z,15.70
2017-09-28T23:38:21.459Z,15.70
2017-09-28T23:40:49.172Z,15.70
2017-09-28T23:43:17.541Z,15.70
2017-09-28T23:45:45.122Z,15.70
2017-09-28T23:48:12.754Z,15.70
2017-09-28T23:50:41.586Z,15.70
2017-09-28T23:53:09.147Z,15.70
2017-09-28T23:55:36.704Z,15.70
2017-09-28T23:58:04.479Z,15.70
